Impacts TAF Board
For situational awareness. Not to be used for flight planning purposes.
IDs:

KSAT - San Antonio Intl, TX, US

Issued at 1309 UTC 16 Aug 2022
Updated at 1309 UTC 16 Aug 2022
Potential Impact None Slight Moderate High
Time1251Z 16/14Z 16/15Z 16/16Z 16/17Z 16/18Z 16/19Z 16/20Z 16/21Z 16/22Z 16/23Z 17/00Z 17/01Z 17/02Z>>
Type OBS PRVL
  [TEMP]  
PRVL PRVL PRVL PRVL PRVL PRVL PRVL PRVL PRVL PRVL PRVL PRVL
VIS 10 >6
  [>6]  
>6 >6 >6 >6 >6 >6 >6 >6 >6 >6 >6 >6
CIG 7 8
  [12]  
-- -- -- -- -- -- -- -- -- -- -- --
Cover OVC BKN
  [BKN]  
SCT SCT SCT SCT SCT SCT SCT SCT SCT SCT SCT SCT
FltCat IFR IFR
  [MVFR]  
VFR VFR VFR VFR VFR VFR VFR VFR VFR VFR VFR VFR
WX -- --
  [--]  
-- -- -- -- -- -- -- -- -- -- -- --
WDir VRB 130
[130]
150 150 150 150 150 150 150 150 150 150 150 150
WSpd 0 3
  [3]  
10 10 10 10 10 10 10 10 10 10 10 10
WGst -- --
  [--]  
-- -- -- -- -- -- -- -- -- -- -- --
WSHgt -- --
[--]
-- -- -- -- -- -- -- -- -- -- -- --
WSDir -- --
[--]
-- -- -- -- -- -- -- -- -- -- -- --
WSSpd -- --
[--]
-- -- -- -- -- -- -- -- -- -- -- --
R04/22
XWnd VRB -3 -9 -9 -9 -9 -9 -9 -9 -9 -9 -9 -9 -9
XGst -- 0 -- -- -- -- -- -- -- -- -- -- -- --
HWnd VRB 0 -3 -3 -3 -3 -3 -3 -3 -3 -3 -3 -3 -3
HGst -- 0 -- -- -- -- -- -- -- -- -- -- -- --
R13/31
XWnd VRB 0 -3 -3 -3 -3 -3 -3 -3 -3 -3 -3 -3 -3
XGst -- 0 -- -- -- -- -- -- -- -- -- -- -- --
HWnd VRB 3 10 10 10 10 10 10 10 10 10 10 10 10
HGst -- 0 -- -- -- -- -- -- -- -- -- -- -- --
Raw TAF
KSAT 161309Z 1613/1718 13003KT P6SM BKN008 BKN012
  TEMPO 1613/1615 SCT008 BKN012
  FM161500 15010KT P6SM SCT050
  FM170900 16005KT P6SM BKN020
  FM171500 18007KT P6SM SCT050


Raw METAR
KSAT 161251Z 00000KT 10SM BKN007 OVC013 25/23 A2997 RMK AO2 SLP130 T02500233
KSAT 161224Z 13003KT 9SM FEW007 BKN014 24/23 A2996 RMK AO2 T02440233
KSAT 161151Z 10004KT 10SM BKN008 24/23 A2995 RMK AO2 SLP123 70001 T02440233 10256 20239 53002
KSAT 161051Z 00000KT 10SM BKN008 BKN012 24/23 A2994 RMK AO2 SLP121 T02440233

METAR Board
Radar Display
Forecast Discussion
For situational awareness. Not to be used for flight planning purposes.